Etusivu
METAR-TAF:

METAR-TAF

Lentoasemat :

Palmer, Alaska, Yhdysvallat

Leveyspiiri: 61-36N, Pituuspiiri: 149-05W, korkeus merenpinnasta: 74 m

Tämänhetkinen sää

Tämä raportti tehtiin 1 tunti ja 5 minuuttia sitten, kello 16.53 UTC
tyyntä
Lämpötila -12°C
Kosteus 92%
Ilmanpaine 994 hPa
Näkyvyys: 16.1 km
selkeää

METAR: PAAQ 151653Z 00000KT 10SM CLR M12/M13 A2935 RMK AO2 SLP947 T11171128

Aika: 08:58 (17:58 UTC)

Sääennuste

Tämä raportti tehtiin 25 minuuttia sitten, kello 17.33 UTC
Ennuste voimassa 15. päivästä klo 18 UTC - 16. päivään klo 18 UTC
Tuuli 4 kn pohjoisesta/koillisesta
Näkyvyys: 10 km
Hajanaisia pilviä 1500 ft:n korkeudessa
Hajonneita pilviä 12000 ft:n korkeudessa
From 16. päivästä klo 0600 UTC
Tuuli 10 kn pohjoisesta/koillisesta puuskistuen 15 kn:hen
Näkyvyys: 10 km
Hajanaisia pilviä 3000 ft:n korkeudessa

TAF: PAAQ 151733Z 1518/1618 03004KT P6SM SCT015 BKN120 FM160600 02010G15KT P6SM SCT030

Säähavainnot ja -ennusteet yli 4000 lentoasemalta (METAR- ja TAF-raportit).

Käytössä olevat sääasemat on merkitty karttaan keltaisilla ja punaisilla pisteillä.

Aseta hiiri pisteen päälle nähdäksesi sääaseman nimen.

Klikkaa sitten nähdäksesi säähavainnot ja -ennusteet.

Kartan vaihtaminen: klikkaa mustalla rastilla varustettuja vihreitä pisteitä, niin voit zoomata sisään; viivalla varustettua vihreää pistettä, niin voit zoomata ulos tai vihreitä nuolia, niin pääset viereisille kartoille.


METAR-TAF: